Time;durP1;ratioP1;P1;durP2;ratioP2;P2;SDS_P1;SDS_P2;PMS_P1;PMS_P2;Temp;Humidity;BMP_temperature;BMP_pressure;BME280_temperature;BME280_humidity;BME280_pressure;Samples;Min_cycle;Max_cycle;Signal;HPM_P1;HPM_P2
2022/01/12 00:01:12;;;;;;;8.00;6.60;;;6.60;99.90;;;;;;4988940;28;20814;-88
2022/01/12 00:03:39;;;;;;;11.03;6.73;;;6.70;99.90;;;;;;5006028;28;20188;-87
2022/01/12 00:06:05;;;;;;;14.97;6.03;;;6.70;99.90;;;;;;4973699;28;20239;-88
2022/01/12 00:08:32;;;;;;;6.70;3.87;;;6.70;99.90;;;;;;4989178;28;20715;-88
2022/01/12 00:11:03;;;;;;;11.80;6.90;;;6.70;99.90;;;;;;4989469;28;20871;-88
2022/01/12 00:13:29;;;;;;;8.53;4.77;;;6.80;99.90;;;;;;4973866;28;20211;-88
2022/01/12 00:15:55;;;;;;;8.80;4.97;;;6.80;99.90;;;;;;4971716;28;20308;-88
2022/01/12 00:18:21;;;;;;;7.53;6.03;;;6.80;99.90;;;;;;4979662;28;20242;-88
2022/01/12 00:20:49;;;;;;;14.40;8.13;;;6.80;99.90;;;;;;4989434;28;20584;-88
2022/01/12 00:23:16;;;;;;;14.63;5.30;;;6.90;99.90;;;;;;4988999;28;20212;-88
2022/01/12 00:25:58;;;;;;;9.63;6.50;;;6.80;99.90;;;;;;4988836;28;20289;-88
2022/01/12 00:33:56;;;;;;;15.43;7.93;;;7.00;99.90;;;;;;4988777;28;20223;-88
2022/01/12 00:36:21;;;;;;;7.93;5.27;;;6.90;99.90;;;;;;4973382;28;20198;-87
2022/01/12 00:38:48;;;;;;;11.67;6.20;;;6.90;99.90;;;;;;4989989;28;20298;-88
2022/01/12 00:41:18;;;;;;;9.50;4.07;;;7.00;99.90;;;;;;5005315;28;20223;-88
2022/01/12 00:43:47;;;;;;;9.80;6.33;;;7.00;99.90;;;;;;4972585;28;20278;-88
2022/01/12 00:46:14;;;;;;;16.90;4.83;;;7.00;99.90;;;;;;4988415;28;20231;-88
2022/01/12 00:48:41;;;;;;;17.73;6.37;;;7.00;99.90;;;;;;4987998;28;20335;-88
2022/01/12 00:51:10;;;;;;;11.27;4.23;;;7.00;99.90;;;;;;4989858;28;20279;-88
2022/01/12 00:53:36;;;;;;;16.10;6.53;;;7.00;99.90;;;;;;4988830;28;20708;-87
2022/01/12 00:56:01;;;;;;;7.73;5.03;;;7.00;99.90;;;;;;4956235;28;20218;-88
2022/01/12 00:58:27;;;;;;;9.47;4.57;;;7.00;99.90;;;;;;4988603;28;20708;-89
2022/01/12 01:00:53;;;;;;;7.20;5.67;;;7.10;99.90;;;;;;4989428;28;20693;-88
2022/01/12 01:03:18;;;;;;;10.87;5.20;;;7.10;99.90;;;;;;4972484;28;20227;-87
2022/01/12 01:05:44;;;;;;;17.97;5.73;;;7.10;99.90;;;;;;4955585;28;20231;-88
2022/01/12 01:08:10;;;;;;;19.10;6.90;;;7.10;99.90;;;;;;4971725;28;20204;-88
2022/01/12 01:10:46;;;;;;;12.23;5.33;;;7.10;99.90;;;;;;4955897;28;20285;-88
2022/01/12 01:13:18;;;;;;;16.20;5.17;;;7.10;99.90;;;;;;4987255;28;20210;-88
2022/01/12 01:26:33;;;;;;;15.20;4.80;;;7.10;99.90;;;;;;4987808;28;20224;-88
2022/01/12 01:28:59;;;;;;;11.30;3.63;;;7.00;99.90;;;;;;4955778;28;20220;-88
2022/01/12 01:31:30;;;;;;;1.13;1.07;;;7.10;99.90;;;;;;4956025;28;20220;-88
2022/01/12 01:33:59;;;;;;;0.47;0.47;;;7.00;99.90;;;;;;4956610;28;20230;-88
2022/01/12 01:36:27;;;;;;;0.93;0.87;;;7.00;99.90;;;;;;4971740;28;20192;-88
2022/01/12 01:38:53;;;;;;;1.67;1.57;;;6.80;99.90;;;;;;4956424;28;20653;-88
2022/01/12 01:41:22;;;;;;;1.77;1.63;;;6.80;99.90;;;;;;4971234;28;20216;-88
2022/01/12 01:54:49;;;;;;;0.47;0.47;;;6.40;99.90;;;;;;4988464;28;20548;-88
2022/01/12 01:57:15;;;;;;;3.00;0.90;;;6.40;99.90;;;;;;4955720;28;20643;-89
2022/01/12 01:59:41;;;;;;;0.57;0.57;;;6.40;99.90;;;;;;4971355;28;20215;-88
2022/01/12 02:02:07;;;;;;;2.63;1.17;;;6.40;99.90;;;;;;4987461;28;20283;-88
2022/01/12 02:04:32;;;;;;;4.30;1.00;;;6.50;99.90;;;;;;4954741;28;20251;-88
2022/01/12 02:06:59;;;;;;;2.10;1.30;;;6.50;99.90;;;;;;4970586;28;20726;-88
2022/01/12 02:09:25;;;;;;;0.50;0.47;;;6.50;99.90;;;;;;4954699;28;20227;-88
2022/01/12 02:11:52;;;;;;;0.53;0.53;;;6.40;99.90;;;;;;4987403;28;20182;-88
2022/01/12 02:14:18;;;;;;;3.20;2.43;;;6.40;99.90;;;;;;4986376;28;20628;-88
2022/01/12 02:16:59;;;;;;;0.60;0.60;;;6.40;99.90;;;;;;4954656;28;20588;-88
2022/01/12 02:41:01;;;;;;;0.70;0.70;;;6.10;99.90;;;;;;4987316;28;20688;-88
2022/01/12 02:53:43;;;;;;;0.40;0.40;;;5.80;99.90;;;;;;4986292;28;20254;-88
2022/01/12 02:56:31;;;;;;;1.77;1.67;;;5.80;99.90;;;;;;4986365;28;20257;-88
2022/01/12 02:58:59;;;;;;;1.70;0.60;;;5.90;99.90;;;;;;5002489;28;20783;-88
2022/01/12 03:04:01;;;;;;;0.40;0.40;;;5.80;99.90;;;;;;4988021;28;20231;-88
2022/01/12 03:06:33;;;;;;;0.20;0.20;;;5.50;99.90;;;;;;4987026;28;20247;-89
2022/01/12 03:08:59;;;;;;;0.20;0.20;;;5.20;99.90;;;;;;4986543;28;20176;-88
2022/01/12 03:11:27;;;;;;;2.43;0.67;;;5.10;99.90;;;;;;4986169;28;20702;-88
2022/01/12 03:13:54;;;;;;;1.50;0.93;;;4.90;99.90;;;;;;4969876;28;20223;-88
2022/01/12 03:16:24;;;;;;;9.63;0.70;;;4.90;99.90;;;;;;4969916;28;20207;-88
2022/01/12 03:19:00;;;;;;;0.67;0.67;;;5.20;99.90;;;;;;4970263;28;20215;-88
2022/01/12 03:21:30;;;;;;;0.60;0.60;;;5.50;99.90;;;;;;5002208;28;20183;-88
2022/01/12 03:23:56;;;;;;;0.30;0.30;;;5.60;99.90;;;;;;4987664;28;20180;-88
2022/01/12 03:26:25;;;;;;;0.40;0.40;;;5.80;99.90;;;;;;4969737;28;20226;-88
2022/01/12 03:28:55;;;;;;;7.00;0.87;;;5.90;99.90;;;;;;4970538;28;20724;-88
2022/01/12 03:31:27;;;;;;;3.23;0.50;;;6.00;99.90;;;;;;4969889;28;20220;-88
2022/01/12 03:33:59;;;;;;;0.50;0.50;;;6.10;99.90;;;;;;4986905;28;20230;-89
2022/01/12 03:38:57;;;;;;;1.63;1.00;;;6.10;99.90;;;;;;4990026;28;20184;-88
2022/01/12 03:41:28;;;;;;;1.13;1.03;;;6.00;99.90;;;;;;4989789;28;20255;-88
2022/01/12 03:43:55;;;;;;;3.83;1.47;;;5.90;99.90;;;;;;5006008;28;20211;-88
2022/01/12 03:46:26;;;;;;;0.30;0.30;;;5.90;99.90;;;;;;4973488;28;20211;-88
2022/01/12 03:48:52;;;;;;;0.20;0.20;;;6.00;99.90;;;;;;4990977;28;20714;-88
2022/01/12 03:51:18;;;;;;;0.93;0.93;;;6.00;99.90;;;;;;4974065;28;20192;-88
2022/01/12 03:53:43;;;;;;;8.73;1.53;;;6.00;99.90;;;;;;4989328;28;20216;-88
2022/01/12 03:56:09;;;;;;;0.50;0.50;;;6.00;99.90;;;;;;4989382;28;20215;-88
2022/01/12 03:58:36;;;;;;;0.50;0.50;;;6.10;99.90;;;;;;4989415;28;20659;-88
2022/01/12 04:01:02;;;;;;;0.70;0.60;;;6.00;99.90;;;;;;4973507;28;20545;-88
2022/01/12 04:03:29;;;;;;;1.30;0.90;;;6.00;99.90;;;;;;4973504;28;20587;-89
2022/01/12 04:08:23;;;;;;;0.77;0.77;;;5.80;99.90;;;;;;4972880;28;20219;-89
2022/01/12 04:11:00;;;;;;;3.10;1.20;;;5.60;99.90;;;;;;4989681;28;20211;-88
2022/01/12 04:13:30;;;;;;;0.77;0.77;;;5.70;99.90;;;;;;4972722;28;20220;-89
2022/01/12 04:16:03;;;;;;;0.50;0.50;;;5.60;99.90;;;;;;4973348;28;20255;-89
2022/01/12 04:18:29;;;;;;;0.63;0.50;;;5.60;99.90;;;;;;4974141;28;20667;-88
2022/01/12 04:20:57;;;;;;;2.47;1.90;;;5.60;99.90;;;;;;4973290;28;20275;-89
2022/01/12 04:23:23;;;;;;;1.33;1.07;;;5.60;99.90;;;;;;4957781;28;20216;-88
2022/01/12 04:25:56;;;;;;;0.87;0.60;;;5.60;99.90;;;;;;4989136;28;20212;-88
2022/01/12 04:28:23;;;;;;;0.40;0.40;;;5.70;99.90;;;;;;4989083;28;20200;-87
2022/01/12 04:30:51;;;;;;;0.40;0.30;;;5.60;99.90;;;;;;4973116;28;20262;-89
2022/01/12 04:33:18;;;;;;;0.50;0.50;;;5.70;99.90;;;;;;4974248;28;20199;-89
2022/01/12 04:35:48;;;;;;;11.97;1.60;;;5.70;99.90;;;;;;5004413;28;20216;-87
2022/01/12 04:38:15;;;;;;;0.53;0.53;;;5.70;99.90;;;;;;4972791;28;20758;-87
2022/01/12 04:40:41;;;;;;;0.73;0.73;;;5.70;99.90;;;;;;4956840;28;20212;-87
2022/01/12 04:43:08;;;;;;;1.60;1.50;;;5.70;99.90;;;;;;4973016;28;20220;-88
2022/01/12 04:45:56;;;;;;;0.67;0.67;;;5.70;99.90;;;;;;4987622;28;20192;-88
2022/01/12 04:50:53;;;;;;;9.97;0.87;;;5.50;99.90;;;;;;4990088;28;20207;-88
2022/01/12 04:53:20;;;;;;;0.97;0.73;;;5.40;99.90;;;;;;5004468;28;20715;-88
2022/01/12 04:55:47;;;;;;;0.40;0.40;;;5.30;99.90;;;;;;4987125;28;20232;-88
2022/01/12 04:58:14;;;;;;;2.17;0.73;;;5.40;99.90;;;;;;4978018;28;20223;-88
2022/01/12 05:00:41;;;;;;;0.33;0.33;;;5.50;99.90;;;;;;4977049;28;20198;-88
2022/01/12 05:08:50;;;;;;;10.80;1.37;;;6.00;99.90;;;;;;4986380;28;20208;-88
2022/01/12 05:14:01;;;;;;;5.20;0.80;;;6.20;99.90;;;;;;4988509;28;20204;-88
2022/01/12 05:16:27;;;;;;;2.90;0.83;;;6.10;99.90;;;;;;4988698;28;20224;-88
2022/01/12 05:18:54;;;;;;;9.07;1.30;;;6.10;99.90;;;;;;4987866;28;20250;-88
2022/01/12 05:21:21;;;;;;;1.43;1.03;;;6.00;99.90;;;;;;4989209;28;20234;-88
2022/01/12 05:23:48;;;;;;;1.50;1.27;;;6.10;99.90;;;;;;4972688;28;20216;-89
2022/01/12 05:26:14;;;;;;;0.80;0.67;;;6.20;99.90;;;;;;4988287;28;20707;-88
2022/01/12 05:28:40;;;;;;;4.57;2.57;;;6.20;99.90;;;;;;4988121;28;20292;-88
2022/01/12 05:31:07;;;;;;;0.20;0.20;;;6.30;99.90;;;;;;5004399;28;20262;-88
2022/01/12 05:33:34;;;;;;;6.33;0.50;;;6.20;99.90;;;;;;4987668;28;20188;-88
2022/01/12 05:36:05;;;;;;;0.60;0.60;;;6.30;99.90;;;;;;4988307;28;20207;-88
2022/01/12 05:38:34;;;;;;;0.97;0.87;;;6.20;99.90;;;;;;4971762;28;20215;-88
2022/01/12 05:41:04;;;;;;;0.93;0.93;;;6.20;99.90;;;;;;4971008;28;20744;-88
2022/01/12 05:43:31;;;;;;;0.90;0.90;;;6.10;99.90;;;;;;4987067;28;20266;-88
2022/01/12 05:46:07;;;;;;;2.67;1.03;;;6.10;99.90;;;;;;5003767;28;20228;-88
2022/01/12 05:51:18;;;;;;;2.20;2.10;;;6.00;99.90;;;;;;4987370;28;20723;-88
2022/01/12 05:53:48;;;;;;;0.83;0.83;;;6.00;99.90;;;;;;4986410;28;20208;-88
2022/01/12 05:56:14;;;;;;;1.17;1.03;;;6.00;99.90;;;;;;4973841;28;20635;-88
2022/01/12 05:58:40;;;;;;;0.70;0.70;;;6.00;99.90;;;;;;4977336;28;20220;-87
2022/01/12 06:01:09;;;;;;;4.13;2.10;;;6.10;99.90;;;;;;4970401;28;20219;-87
2022/01/12 06:03:35;;;;;;;1.30;1.00;;;6.00;99.90;;;;;;4954635;28;20271;-87
2022/01/12 06:06:03;;;;;;;1.20;1.10;;;6.00;99.90;;;;;;4954124;28;20307;-88
2022/01/12 06:08:32;;;;;;;4.30;2.77;;;5.90;99.90;;;;;;4962056;28;20596;-87
2022/01/12 06:11:02;;;;;;;3.47;2.57;;;5.80;99.90;;;;;;4985510;28;20220;-88
2022/01/12 06:13:31;;;;;;;2.83;2.20;;;5.90;99.90;;;;;;4969735;28;20216;-88
2022/01/12 06:15:57;;;;;;;1.10;1.03;;;5.80;99.90;;;;;;4968361;28;20227;-87
2022/01/12 06:18:23;;;;;;;1.67;1.53;;;5.80;99.90;;;;;;4950869;28;20219;-87
2022/01/12 06:20:51;;;;;;;2.87;1.00;;;5.80;99.90;;;;;;4950496;28;20211;-88
2022/01/12 06:23:20;;;;;;;0.50;0.50;;;5.70;99.90;;;;;;4968969;28;20217;-88
2022/01/12 06:25:49;;;;;;;2.73;2.50;;;5.80;99.90;;;;;;4968972;28;20223;-88
2022/01/12 06:28:34;;;;;;;;;;;;;;;;;;;;;
2022/01/12 06:31:11;;;;;;;0.70;0.70;;;5.60;99.90;;;;;;4972915;28;20217;-87
2022/01/12 06:33:45;;;;;;;0.80;0.80;;;5.50;99.90;;;;;;4985902;28;20188;-87
2022/01/12 06:36:13;;;;;;;1.27;1.17;;;5.40;99.90;;;;;;5003464;28;20279;-88
2022/01/12 06:38:39;;;;;;;1.23;1.13;;;5.40;99.90;;;;;;4969832;28;20220;-87
2022/01/12 06:41:05;;;;;;;0.73;0.73;;;5.50;99.90;;;;;;4952945;28;20310;-88
2022/01/12 06:43:32;;;;;;;0.73;0.70;;;5.40;99.90;;;;;;4952421;28;20248;-88
2022/01/12 06:45:58;;;;;;;1.70;1.20;;;5.50;99.90;;;;;;4985495;28;20216;-88
2022/01/12 06:48:24;;;;;;;0.50;0.50;;;5.50;99.90;;;;;;4985982;28;20188;-88
2022/01/12 06:50:50;;;;;;;0.77;0.77;;;5.50;99.90;;;;;;4970039;28;20319;-87
2022/01/12 06:53:16;;;;;;;1.30;1.20;;;5.50;99.90;;;;;;4953899;28;20662;-86
2022/01/12 06:55:42;;;;;;;0.90;0.40;;;5.50;99.90;;;;;;4954314;28;20313;-88
2022/01/12 06:58:08;;;;;;;2.37;2.17;;;5.50;99.90;;;;;;4954082;28;20632;-88
2022/01/12 07:00:34;;;;;;;0.77;0.77;;;5.50;99.90;;;;;;4953790;28;20192;-88
2022/01/12 07:03:01;;;;;;;2.00;0.50;;;5.60;99.90;;;;;;4969645;28;20192;-88
2022/01/12 07:05:27;;;;;;;1.03;0.47;;;5.60;99.90;;;;;;4953145;28;20626;-88
2022/01/12 07:07:52;;;;;;;0.63;0.63;;;5.50;99.90;;;;;;4969357;28;20342;-88
2022/01/12 07:10:18;;;;;;;1.53;1.33;;;5.50;99.90;;;;;;4971252;28;20211;-88
2022/01/12 07:12:44;;;;;;;0.60;0.60;;;5.50;99.90;;;;;;4974033;28;20212;-88
2022/01/12 07:15:10;;;;;;;1.53;1.43;;;5.40;99.90;;;;;;4958392;28;20188;-88
2022/01/12 07:17:35;;;;;;;1.03;1.03;;;5.30;99.90;;;;;;4989793;28;20203;-88
2022/01/12 07:20:03;;;;;;;14.03;0.80;;;5.10;99.90;;;;;;4973740;28;20688;-88
2022/01/12 07:22:29;;;;;;;1.47;1.20;;;4.90;99.90;;;;;;4974055;28;20215;-87
2022/01/12 07:24:55;;;;;;;11.07;5.50;;;4.80;99.90;;;;;;4972607;28;20220;-87
2022/01/12 07:27:21;;;;;;;2.50;2.33;;;4.70;99.90;;;;;;4973667;28;20570;-87
2022/01/12 07:29:47;;;;;;;4.57;4.27;;;4.70;99.90;;;;;;4972613;28;20215;-87
2022/01/12 07:32:13;;;;;;;4.90;4.43;;;4.60;99.90;;;;;;4956783;28;20240;-87
2022/01/12 07:34:39;;;;;;;4.27;3.73;;;4.50;99.90;;;;;;4988648;28;20239;-88
2022/01/12 07:37:05;;;;;;;7.27;1.57;;;4.40;99.90;;;;;;4972994;28;20212;-89
2022/01/12 07:39:31;;;;;;;2.47;2.33;;;4.30;99.90;;;;;;4972929;28;20184;-89
2022/01/12 07:41:57;;;;;;;2.00;1.80;;;4.30;99.90;;;;;;4973284;28;20203;-88
2022/01/12 07:44:23;;;;;;;9.83;3.53;;;4.10;99.90;;;;;;4972510;28;20216;-88
2022/01/12 07:46:49;;;;;;;1.33;1.23;;;4.10;99.90;;;;;;4972683;28;20218;-88
2022/01/12 07:49:15;;;;;;;0.73;0.73;;;4.10;99.90;;;;;;4956097;28;20314;-88
2022/01/12 07:51:41;;;;;;;12.40;1.60;;;4.20;99.90;;;;;;4988870;28;20676;-88
2022/01/12 07:54:07;;;;;;;1.10;1.10;;;4.30;99.90;;;;;;4989915;28;20176;-88
2022/01/12 07:56:33;;;;;;;1.23;1.13;;;4.40;99.90;;;;;;4971345;28;20219;-87
2022/01/12 07:59:00;;;;;;;2.60;1.27;;;4.50;99.90;;;;;;4991404;28;20298;-89
2022/01/12 08:01:26;;;;;;;1.73;1.37;;;4.60;99.90;;;;;;4972267;28;20220;-89
2022/01/12 08:03:52;;;;;;;1.43;0.83;;;4.70;99.90;;;;;;4972303;28;20227;-90
2022/01/12 08:06:17;;;;;;;0.63;0.63;;;4.80;99.90;;;;;;4972948;28;20220;-89
2022/01/12 08:08:43;;;;;;;0.60;0.60;;;4.70;99.90;;;;;;4972237;28;20238;-89
2022/01/12 08:11:09;;;;;;;3.13;2.30;;;4.70;99.90;;;;;;4972831;28;20287;-90
2022/01/12 08:13:35;;;;;;;1.77;1.27;;;4.60;99.90;;;;;;4972595;28;20231;-90
2022/01/12 08:16:01;;;;;;;6.10;2.13;;;4.60;99.90;;;;;;4972820;28;20215;-90
2022/01/12 08:18:26;;;;;;;3.70;1.60;;;4.60;99.90;;;;;;4972614;28;20196;-89
2022/01/12 08:20:52;;;;;;;7.47;1.83;;;4.60;99.90;;;;;;4972373;28;20258;-90
2022/01/12 08:23:19;;;;;;;1.63;1.23;;;4.70;99.90;;;;;;4956236;28;20238;-90
2022/01/12 08:25:45;;;;;;;0.40;0.40;;;4.70;99.90;;;;;;4971476;28;20290;-90
2022/01/12 08:28:10;;;;;;;2.77;0.57;;;4.90;99.90;;;;;;4956369;28;20211;-90
2022/01/12 08:30:36;;;;;;;4.73;2.30;;;4.80;99.90;;;;;;4956885;28;20180;-90
2022/01/12 08:33:04;;;;;;;0.67;0.67;;;4.80;99.90;;;;;;4973155;28;20846;-90
2022/01/12 08:35:30;;;;;;;1.03;0.90;;;4.90;99.90;;;;;;4972273;28;20208;-89
2022/01/12 08:37:57;;;;;;;1.33;1.33;;;5.00;99.90;;;;;;4988604;28;20607;-89
2022/01/12 08:40:25;;;;;;;1.07;1.07;;;5.10;99.90;;;;;;4971907;28;20270;-90
2022/01/12 08:42:51;;;;;;;5.13;1.10;;;5.20;99.90;;;;;;4971814;28;20215;-90
2022/01/12 08:45:18;;;;;;;2.90;1.57;;;5.20;99.90;;;;;;4972321;28;20239;-90
2022/01/12 08:47:45;;;;;;;4.33;1.27;;;5.20;99.90;;;;;;4971767;28;20658;-90
2022/01/12 08:50:13;;;;;;;1.40;1.30;;;5.20;99.90;;;;;;4955932;28;20227;-90
2022/01/12 08:52:45;;;;;;;0.57;0.57;;;5.30;99.90;;;;;;4988288;28;20627;-90
2022/01/12 08:55:16;;;;;;;1.07;0.97;;;5.40;99.90;;;;;;4988291;28;20218;-90
2022/01/12 08:57:41;;;;;;;0.90;0.90;;;5.40;99.90;;;;;;4988146;28;20207;-90
2022/01/12 09:00:09;;;;;;;1.63;0.77;;;5.60;99.90;;;;;;4987372;28;20250;-90
2022/01/12 09:02:35;;;;;;;1.53;1.10;;;5.60;99.90;;;;;;4987578;28;20220;-90
2022/01/12 09:05:01;;;;;;;1.23;0.70;;;5.60;99.90;;;;;;5004054;28;20235;-90
2022/01/12 09:07:27;;;;;;;2.37;0.97;;;5.60;99.90;;;;;;4971931;28;20295;-90
2022/01/12 09:09:56;;;;;;;4.47;1.50;;;5.50;99.90;;;;;;4955794;28;20783;-90
2022/01/12 09:12:21;;;;;;;0.83;0.83;;;5.40;99.90;;;;;;4955764;28;20247;-90
2022/01/12 09:14:48;;;;;;;0.60;0.60;;;5.30;99.90;;;;;;4956106;28;20216;-90
2022/01/12 09:17:21;;;;;;;1.00;1.00;;;5.20;99.90;;;;;;4971355;28;20220;-90
2022/01/12 09:19:47;;;;;;;2.40;2.30;;;5.20;99.90;;;;;;5002623;28;20562;-89
2022/01/12 09:22:13;;;;;;;3.70;1.10;;;5.10;99.90;;;;;;4955352;28;20212;-91
2022/01/12 09:24:39;;;;;;;1.07;1.07;;;5.20;99.90;;;;;;4987284;28;20269;-90
2022/01/12 09:27:05;;;;;;;1.33;1.27;;;5.20;99.90;;;;;;4955416;28;20292;-90
2022/01/12 09:29:31;;;;;;;1.03;1.03;;;5.20;99.90;;;;;;4971307;28;20550;-90
2022/01/12 09:31:57;;;;;;;3.33;1.53;;;5.20;99.90;;;;;;4986473;28;20584;-90
2022/01/12 09:34:22;;;;;;;0.90;0.90;;;5.20;99.90;;;;;;4970691;28;20212;-90
2022/01/12 09:36:48;;;;;;;2.27;0.87;;;5.20;99.90;;;;;;4971504;28;20212;-90
2022/01/12 09:39:14;;;;;;;3.13;1.53;;;5.20;99.90;;;;;;4955081;28;20254;-90
2022/01/12 09:41:40;;;;;;;1.57;1.13;;;5.30;99.90;;;;;;4986756;28;20208;-90
2022/01/12 09:44:06;;;;;;;0.77;0.70;;;5.40;99.90;;;;;;4955079;28;20298;-90
2022/01/12 09:46:37;;;;;;;2.90;1.27;;;5.50;99.90;;;;;;4970601;28;20688;-90
2022/01/12 09:49:06;;;;;;;0.87;0.80;;;5.50;99.90;;;;;;4954375;28;20830;-90
2022/01/12 09:51:32;;;;;;;7.33;1.80;;;5.50;99.90;;;;;;4955223;28;20258;-90
2022/01/12 09:53:58;;;;;;;1.10;1.10;;;5.60;99.90;;;;;;4987265;28;20188;-90
2022/01/12 09:56:28;;;;;;;0.70;0.70;;;5.60;99.90;;;;;;4986346;28;20228;-90
2022/01/12 09:58:55;;;;;;;0.97;0.77;;;5.70;99.90;;;;;;5003426;28;20231;-90
2022/01/12 10:01:29;;;;;;;0.50;0.50;;;5.50;99.90;;;;;;4985924;28;20223;-89
2022/01/12 10:04:28;;;;;;;1.17;1.10;;;5.60;99.90;;;;;;4985461;28;20425;-90
2022/01/12 10:06:58;;;;;;;0.90;0.90;;;5.60;99.90;;;;;;4944333;28;20232;-90
2022/01/12 10:09:28;;;;;;;0.90;0.90;;;5.60;99.90;;;;;;4970444;28;20226;-90
2022/01/12 10:11:57;;;;;;;0.73;0.73;;;5.60;99.90;;;;;;5003084;28;20270;-90
2022/01/12 10:14:37;;;;;;;16.33;2.40;;;5.80;99.90;;;;;;4986248;28;20224;-90
2022/01/12 10:17:03;;;;;;;1.93;1.73;;;5.80;99.90;;;;;;5001962;28;20219;-90
2022/01/12 10:19:32;;;;;;;2.20;0.90;;;6.00;99.90;;;;;;4985550;28;20223;-90
2022/01/12 10:22:00;;;;;;;2.37;1.60;;;6.10;99.90;;;;;;4987199;28;20212;-90
2022/01/12 10:24:27;;;;;;;2.77;2.23;;;6.10;99.90;;;;;;4986695;28;20191;-85
2022/01/12 10:26:55;;;;;;;6.20;1.57;;;6.10;99.90;;;;;;4986372;28;20212;-89
2022/01/12 10:29:31;;;;;;;0.93;0.93;;;6.20;99.90;;;;;;4970489;28;20216;-90
2022/01/12 10:31:56;;;;;;;4.90;1.30;;;6.30;99.90;;;;;;4969645;28;20227;-88
2022/01/12 10:34:28;;;;;;;1.90;0.83;;;6.40;99.90;;;;;;4986502;28;20227;-89
2022/01/12 10:36:55;;;;;;;2.00;1.67;;;6.50;99.90;;;;;;5002092;28;20735;-89
2022/01/12 10:39:25;;;;;;;5.67;2.43;;;6.50;99.90;;;;;;4970648;28;20188;-88
2022/01/12 10:42:04;;;;;;;11.73;3.10;;;6.60;99.90;;;;;;4986707;28;20208;-89
2022/01/12 10:44:32;;;;;;;0.73;0.73;;;6.70;99.90;;;;;;4985164;28;20211;-89
2022/01/12 10:47:21;;;;;;;1.87;1.77;;;6.80;99.90;;;;;;4985844;28;21293;-89
2022/01/12 10:50:07;;;;;;;3.50;1.00;;;6.90;99.90;;;;;;5002410;28;20228;-91
2022/01/12 10:52:34;;;;;;;2.33;1.57;;;7.00;99.90;;;;;;5002868;28;20218;-90
2022/01/12 10:55:12;;;;;;;1.33;1.33;;;7.10;99.90;;;;;;4986580;28;20208;-91
2022/01/12 10:57:44;;;;;;;0.87;0.87;;;7.10;99.90;;;;;;4970332;28;20302;-91
2022/01/12 11:00:18;;;;;;;5.63;2.07;;;7.20;99.90;;;;;;4970862;28;21035;-90
2022/01/12 11:02:50;;;;;;;1.97;1.47;;;7.30;99.90;;;;;;5002900;28;20274;-90
2022/01/12 11:05:17;;;;;;;1.53;1.27;;;7.40;99.90;;;;;;4991262;28;20236;-93
2022/01/12 11:07:43;;;;;;;4.03;3.50;;;7.60;99.90;;;;;;4970910;28;20228;-90
2022/01/12 11:10:10;;;;;;;3.43;1.67;;;7.70;99.90;;;;;;4952642;28;20220;-90
2022/01/12 11:12:38;;;;;;;2.83;1.73;;;7.70;99.90;;;;;;4969733;28;20671;-90
2022/01/12 11:15:09;;;;;;;11.87;1.93;;;7.80;99.90;;;;;;4985785;28;20188;-90
2022/01/12 11:17:38;;;;;;;1.53;1.43;;;7.90;99.90;;;;;;4985441;28;20295;-90
2022/01/12 11:20:26;;;;;;;2.50;2.03;;;8.00;99.90;;;;;;5000823;28;20216;-91
2022/01/12 11:23:06;;;;;;;4.83;2.10;;;8.10;99.90;;;;;;4968840;28;20208;-90
2022/01/12 11:25:41;;;;;;;1.23;1.13;;;8.20;99.90;;;;;;4985110;28;20616;-89
2022/01/12 11:28:06;;;;;;;6.57;2.20;;;8.30;99.90;;;;;;5001164;28;20577;-89
2022/01/12 11:30:33;;;;;;;3.20;1.80;;;8.40;99.90;;;;;;4985129;28;20199;-89
2022/01/12 11:33:05;;;;;;;11.80;1.33;;;8.50;99.90;;;;;;4983257;28;20629;-89
2022/01/12 11:35:34;;;;;;;2.90;1.43;;;8.50;99.90;;;;;;4969355;28;20227;-89
2022/01/12 11:38:06;;;;;;;0.63;0.63;;;8.70;99.90;;;;;;4983986;28;20593;-90
2022/01/12 11:40:37;;;;;;;1.73;1.73;;;8.70;99.90;;;;;;4952796;28;20299;-89
2022/01/12 11:43:05;;;;;;;1.40;1.30;;;8.70;99.90;;;;;;4984577;28;20220;-89
2022/01/12 11:45:33;;;;;;;2.30;2.00;;;8.80;99.90;;;;;;4969227;28;20188;-89
2022/01/12 11:47:59;;;;;;;2.70;1.20;;;8.90;99.90;;;;;;4967390;28;20274;-87
2022/01/12 11:50:25;;;;;;;6.17;2.27;;;9.00;99.90;;;;;;4951617;28;20231;-89
2022/01/12 11:52:51;;;;;;;24.97;1.80;;;9.00;99.90;;;;;;4969184;28;20215;-90
2022/01/12 11:55:18;;;;;;;6.97;1.57;;;9.10;99.90;;;;;;4953035;28;20688;-91
2022/01/12 11:57:54;;;;;;;3.83;1.77;;;9.10;99.90;;;;;;4988265;28;20212;-91
2022/01/12 12:00:23;;;;;;;2.80;2.10;;;9.20;99.90;;;;;;4972948;28;20184;-91
2022/01/12 12:02:51;;;;;;;4.43;2.30;;;9.20;99.90;;;;;;4988517;28;20212;-89
2022/01/12 12:05:22;;;;;;;15.53;1.57;;;9.30;99.90;;;;;;5005020;28;20691;-89
2022/01/12 12:08:09;;;;;;;11.23;1.87;;;9.40;99.90;;;;;;4987712;28;20404;-89
2022/01/12 12:10:37;;;;;;;1.33;0.70;;;9.40;99.90;;;;;;4988286;28;20708;-89
2022/01/12 12:13:05;;;;;;;11.27;2.23;;;9.50;99.90;;;;;;4988790;28;21046;-89
2022/01/12 12:15:31;;;;;;;8.13;2.43;;;9.50;99.90;;;;;;4988366;28;20825;-89
2022/01/12 12:18:00;;;;;;;2.33;1.37;;;9.50;99.90;;;;;;4989240;28;20653;-90
2022/01/12 12:20:26;;;;;;;1.17;0.70;;;9.50;99.90;;;;;;4988611;28;20216;-90
2022/01/12 12:22:52;;;;;;;12.23;1.53;;;9.60;99.90;;;;;;4972401;28;20239;-90
2022/01/12 12:25:19;;;;;;;3.20;1.67;;;9.60;99.90;;;;;;4972034;28;20208;-88
2022/01/12 12:27:50;;;;;;;2.73;2.03;;;9.60;99.90;;;;;;5004277;28;20254;-88
2022/01/12 12:30:18;;;;;;;8.73;2.33;;;9.70;99.90;;;;;;4989025;28;20187;-88
2022/01/12 12:32:53;;;;;;;1.80;1.20;;;9.70;99.90;;;;;;4972474;28;20303;-88
2022/01/12 12:35:28;;;;;;;2.67;1.43;;;9.70;99.90;;;;;;4987860;28;20273;-89
2022/01/12 12:37:59;;;;;;;12.70;1.23;;;9.60;99.90;;;;;;4988290;28;20215;-89
2022/01/12 12:40:38;;;;;;;5.37;1.50;;;9.60;99.90;;;;;;4988109;28;20234;-88
2022/01/12 12:43:20;;;;;;;0.40;0.40;;;9.60;99.90;;;;;;4988079;28;20219;-88
2022/01/12 12:45:51;;;;;;;5.50;1.10;;;9.60;99.90;;;;;;5003909;28;20699;-88
2022/01/12 12:48:26;;;;;;;1.53;0.70;;;9.70;99.90;;;;;;4987680;28;20230;-89
2022/01/12 12:51:04;;;;;;;2.23;0.60;;;9.80;99.90;;;;;;5004173;28;20359;-88
2022/01/12 12:53:32;;;;;;;3.70;0.70;;;9.90;99.90;;;;;;4988411;28;20250;-88
2022/01/12 12:56:01;;;;;;;9.63;1.50;;;9.90;99.90;;;;;;4987824;28;20218;-89
2022/01/12 12:58:28;;;;;;;1.47;1.17;;;9.80;99.90;;;;;;4987930;28;20208;-88
2022/01/12 13:01:07;;;;;;;2.53;1.47;;;9.90;99.90;;;;;;4971451;28;20212;-88
2022/01/12 13:03:33;;;;;;;15.87;1.33;;;10.10;99.90;;;;;;4987676;28;20184;-89
2022/01/12 13:05:59;;;;;;;0.90;0.90;;;10.20;99.90;;;;;;4988165;28;20176;-89
2022/01/12 13:08:25;;;;;;;4.33;1.10;;;10.50;99.90;;;;;;4971025;28;20714;-89
2022/01/12 13:10:50;;;;;;;0.70;0.50;;;10.60;99.90;;;;;;4971519;28;20302;-88
2022/01/12 13:13:16;;;;;;;5.07;1.60;;;10.90;99.90;;;;;;4955319;28;20208;-88
2022/01/12 13:15:44;;;;;;;6.23;2.27;;;10.80;99.90;;;;;;4955654;28;20196;-89
2022/01/12 13:18:19;;;;;;;2.30;0.83;;;10.80;99.90;;;;;;4988989;28;20215;-89
2022/01/12 13:23:41;;;;;;;1.03;0.90;;;10.70;99.90;;;;;;4988793;28;20211;-88
2022/01/12 13:26:09;;;;;;;7.53;1.13;;;10.70;99.90;;;;;;4986856;28;20409;-89
2022/01/12 13:28:37;;;;;;;4.57;0.90;;;10.60;99.90;;;;;;4988544;28;20216;-88
2022/01/12 13:31:08;;;;;;;19.33;2.30;;;10.60;99.90;;;;;;4987664;28;20960;-87
2022/01/12 13:33:41;;;;;;;4.17;1.30;;;10.60;99.90;;;;;;4987392;28;20271;-89
2022/01/12 13:36:28;;;;;;;2.83;0.83;;;10.50;99.90;;;;;;4987776;28;20192;-89
2022/01/12 13:38:55;;;;;;;5.90;1.83;;;10.30;99.90;;;;;;4987534;28;20624;-88
2022/01/12 13:41:26;;;;;;;2.00;1.07;;;10.30;99.90;;;;;;4987570;28;20208;-88
2022/01/12 13:44:17;;;;;;;6.30;1.27;;;10.30;99.90;;;;;;4988257;28;20230;-89
2022/01/12 13:46:54;;;;;;;3.27;1.10;;;10.30;99.90;;;;;;5003720;28;20212;-88
2022/01/12 13:49:21;;;;;;;10.73;1.20;;;10.30;99.90;;;;;;4986682;28;20310;-89
2022/01/12 13:51:59;;;;;;;4.43;0.87;;;10.30;99.90;;;;;;4955400;28;20604;-88
2022/01/12 13:54:40;;;;;;;6.87;1.47;;;10.30;99.90;;;;;;5002694;28;20211;-88
2022/01/12 13:57:14;;;;;;;1.50;1.40;;;10.30;99.90;;;;;;4987061;28;20696;-87
2022/01/12 13:59:51;;;;;;;10.23;0.93;;;10.30;99.90;;;;;;4986792;28;20262;-87
2022/01/12 14:02:21;;;;;;;1.90;1.70;;;10.20;99.90;;;;;;4985649;28;20221;-88
2022/01/12 14:05:06;;;;;;;1.00;0.77;;;10.20;99.90;;;;;;4986371;28;20787;-88
2022/01/12 14:07:47;;;;;;;3.67;2.07;;;10.10;99.90;;;;;;4971674;28;20228;-88
2022/01/12 14:10:15;;;;;;;0.47;0.47;;;10.10;99.90;;;;;;4986926;28;20254;-88
2022/01/12 14:12:49;;;;;;;15.00;2.20;;;10.20;99.90;;;;;;4971214;28;20195;-88
2022/01/12 14:15:27;;;;;;;0.73;0.60;;;10.20;99.90;;;;;;4971702;28;20275;-88
2022/01/12 14:17:54;;;;;;;3.30;0.73;;;10.10;99.90;;;;;;5003282;28;20307;-88
2022/01/12 14:20:36;;;;;;;0.40;0.40;;;10.10;99.90;;;;;;4969976;28;20240;-88
2022/01/12 14:23:08;;;;;;;0.83;0.83;;;10.10;99.90;;;;;;4986416;28;20211;-89
2022/01/12 14:25:46;;;;;;;1.50;1.20;;;10.00;99.90;;;;;;4987258;28;20227;-88
2022/01/12 14:28:25;;;;;;;1.83;1.00;;;10.10;99.90;;;;;;5002832;28;20220;-87